IKK weather

Greater Kankakee Airport
Kankakee, Illinois, United States

Public forecast

Using degrees Fahrenheit for public forecast. Weather courtesy of forecast.io.

Current aviation weather report (METAR) for Greater Kankakee Airport

Retrieved 2020/06/01 18:57 UTC (18 minutes ago):

KIKK 011857Z AUTO 21009G14KT 10SM SCT029 SCT046 OVC110 21/08 A3020 RMK AO2

Closest aviation forecast (TAF) to Greater Kankakee Airport

Closest forecast is Gary Chicago International Airport, 38.1 nm (70.6 km) NNE. Retrieved 2020/06/01 18:24 UTC (51 minutes ago):

TAF KGYY 011721Z 0118/0218 19012G19KT P6SM -SHRA SCT045 OVC070 FM012100 20016G26KT P6SM BKN100 FM020200 20014G20KT P6SM SCT050 WS015/24045KT FM021400 24012G18KT P6SM SCT250